createdAt,value
2018-12-26T00:00:23.360Z,103275.05
2018-12-26T00:02:52.732Z,103273.30
2018-12-26T00:05:22.206Z,103269.83
2018-12-26T00:07:51.518Z,103267.65
2018-12-26T00:10:20.872Z,103263.30
2018-12-26T00:12:50.207Z,103258.08
2018-12-26T00:15:19.598Z,103258.95
2018-12-26T00:17:48.956Z,103254.17
2018-12-26T00:20:18.328Z,103249.82
2018-12-26T00:22:47.660Z,103246.77
2018-12-26T00:25:17.119Z,103250.69
2018-12-26T00:27:46.529Z,103250.25
2018-12-26T00:30:15.868Z,103247.21
2018-12-26T00:32:45.234Z,103247.64
2018-12-26T00:35:14.570Z,103242.42
2018-12-26T00:37:43.919Z,103243.73
2018-12-26T00:40:13.294Z,103241.55
2018-12-26T00:42:42.649Z,103241.52
2018-12-26T00:45:11.969Z,103240.69
2018-12-26T00:47:41.306Z,103240.69
2018-12-26T00:50:10.648Z,103244.59
2018-12-26T00:52:40.009Z,103248.08
2018-12-26T00:55:09.354Z,103242.42
2018-12-26T00:57:38.686Z,103245.03
2018-12-26T01:00:08.643Z,103241.13
2018-12-26T01:02:37.971Z,103235.90
2018-12-26T01:05:07.306Z,103235.90
2018-12-26T01:07:36.710Z,103240.25
2018-12-26T01:10:06.286Z,103234.20
2018-12-26T01:12:35.653Z,103232.89
2018-12-26T01:15:05.151Z,103240.72
2018-12-26T01:17:34.732Z,103236.37
2018-12-26T01:20:04.106Z,103239.84
2018-12-26T01:22:33.471Z,103241.58
2018-12-26T01:25:02.795Z,103231.58
2018-12-26T01:27:32.170Z,103227.23
2018-12-26T01:30:01.507Z,103227.67
2018-12-26T01:32:30.840Z,103227.67
2018-12-26T01:35:00.268Z,103226.80
2018-12-26T01:37:29.603Z,103232.89
2018-12-26T01:39:58.943Z,103233.33
2018-12-26T01:42:28.333Z,103228.54
2018-12-26T01:44:57.652Z,103234.62
2018-12-26T01:47:27.009Z,103232.02
2018-12-26T01:49:56.305Z,103235.09
2018-12-26T01:52:25.628Z,103232.02
2018-12-26T01:54:54.966Z,103234.22
2018-12-26T01:57:24.323Z,103231.21
2018-12-26T01:59:53.645Z,103234.25
2018-12-26T02:02:23.014Z,103235.12
2018-12-26T02:04:52.398Z,103233.41
2018-12-26T02:07:21.763Z,103237.33
2018-12-26T02:09:51.168Z,103243.41
2018-12-26T02:12:20.529Z,103244.28
2018-12-26T02:14:49.936Z,103243.45
2018-12-26T02:17:19.302Z,103242.58
2018-12-26T02:19:48.635Z,103240.41
2018-12-26T02:22:17.978Z,103246.48
2018-12-26T02:24:47.288Z,103239.09
2018-12-26T02:27:16.636Z,103239.53
2018-12-26T02:29:46.029Z,103238.66
2018-12-26T02:32:15.368Z,103235.62
2018-12-26T02:34:44.775Z,103235.62
2018-12-26T02:37:14.164Z,103235.62
2018-12-26T02:39:43.504Z,103231.70
2018-12-26T02:42:12.889Z,103227.80
2018-12-26T02:44:42.302Z,103223.47
2018-12-26T02:47:11.659Z,103223.47
2018-12-26T02:49:41.010Z,103223.91
2018-12-26T02:52:10.386Z,103228.25
2018-12-26T02:54:39.688Z,103233.91
2018-12-26T02:57:09.042Z,103232.17
2018-12-26T02:59:38.365Z,103229.56
2018-12-26T03:02:07.746Z,103231.33
2018-12-26T03:04:37.084Z,103226.95
2018-12-26T03:07:06.444Z,103223.04
2018-12-26T03:09:35.800Z,103221.77
2018-12-26T03:12:05.126Z,103219.13
2018-12-26T03:14:34.443Z,103217.85
2018-12-26T03:17:03.787Z,103217.85
2018-12-26T03:19:33.153Z,103209.59
2018-12-26T03:22:02.498Z,103212.20
2018-12-26T03:24:31.860Z,103219.59
2018-12-26T03:27:01.177Z,103218.75
2018-12-26T03:29:30.551Z,103216.14
2018-12-26T03:31:59.855Z,103210.05
2018-12-26T03:34:29.200Z,103220.48
2018-12-26T03:36:58.593Z,103214.88
2018-12-26T03:39:27.905Z,103217.48
2018-12-26T03:41:57.358Z,103211.83
2018-12-26T03:44:26.733Z,103215.73
2018-12-26T03:46:56.552Z,103215.30
2018-12-26T03:49:25.907Z,103224.00
2018-12-26T03:51:55.835Z,103222.26
2018-12-26T03:54:25.303Z,103220.52
2018-12-26T03:56:55.165Z,103215.30
2018-12-26T03:59:24.517Z,103217.48
2018-12-26T04:01:53.914Z,103213.56
2018-12-26T04:04:23.243Z,103214.00
2018-12-26T04:06:52.651Z,103204.88
2018-12-26T04:09:22.069Z,103213.13
2018-12-26T04:11:51.580Z,103210.52
2018-12-26T04:14:20.955Z,103205.73
2018-12-26T04:16:50.579Z,103207.48
2018-12-26T04:19:20.046Z,103204.00
2018-12-26T04:21:49.385Z,103204.87
2018-12-26T04:24:19.028Z,103207.08
2018-12-26T04:26:48.396Z,103203.59
2018-12-26T04:29:17.783Z,103200.98
2018-12-26T04:31:47.166Z,103202.73
2018-12-26T04:34:16.500Z,103202.26
2018-12-26T04:36:45.888Z,103200.12
2018-12-26T04:39:15.273Z,103200.55
2018-12-26T04:41:44.697Z,103201.86
2018-12-26T04:44:14.078Z,103201.42
2018-12-26T04:46:43.476Z,103202.73
2018-12-26T04:49:12.960Z,103199.68
2018-12-26T04:51:42.289Z,103202.76
2018-12-26T04:54:11.693Z,103199.28
2018-12-26T04:56:41.063Z,103203.63
2018-12-26T04:59:10.416Z,103196.23
2018-12-26T05:01:42.082Z,103196.23
2018-12-26T05:04:10.910Z,103193.63
2018-12-26T05:06:40.310Z,103194.50
2018-12-26T05:09:09.668Z,103190.58
2018-12-26T05:11:39.147Z,103189.75
2018-12-26T05:14:08.494Z,103192.35
2018-12-26T05:16:37.889Z,103184.53
2018-12-26T05:19:07.326Z,103183.66
2018-12-26T05:21:36.667Z,103179.75
2018-12-26T05:24:05.997Z,103178.44
2018-12-26T05:26:35.449Z,103172.79
2018-12-26T05:29:04.801Z,103168.87
2018-12-26T05:31:34.166Z,103168.87
2018-12-26T05:34:03.508Z,103169.75
2018-12-26T05:36:32.880Z,103166.73
2018-12-26T05:39:02.206Z,103173.69
2018-12-26T05:41:31.569Z,103176.30
2018-12-26T05:44:00.912Z,103180.21
2018-12-26T05:46:30.307Z,103177.60
2018-12-26T05:48:59.686Z,103181.52
2018-12-26T05:51:28.984Z,103182.82
2018-12-26T05:53:58.389Z,103174.12
2018-12-26T05:56:27.768Z,103175.86
2018-12-26T05:58:57.116Z,103175.86
2018-12-26T06:01:26.528Z,103175.86
2018-12-26T06:03:55.931Z,103177.63
2018-12-26T06:06:25.331Z,103176.73
2018-12-26T06:08:54.653Z,103173.28
2018-12-26T06:11:24.002Z,103175.46
2018-12-26T06:13:53.333Z,103171.55
2018-12-26T06:16:22.699Z,103169.84
2018-12-26T06:18:52.021Z,103173.75
2018-12-26T06:21:21.399Z,103180.27
2018-12-26T06:23:50.780Z,103173.31
2018-12-26T06:26:20.149Z,103177.23
2018-12-26T06:28:49.559Z,103171.61
2018-12-26T06:31:18.966Z,103170.30
2018-12-26T06:33:48.519Z,103166.39
2018-12-26T06:36:17.857Z,103162.48
2018-12-26T06:38:47.258Z,103158.13
2018-12-26T06:41:16.596Z,103161.18
2018-12-26T06:43:45.971Z,103163.34
2018-12-26T06:46:15.349Z,103157.70
2018-12-26T06:48:44.704Z,103157.27
2018-12-26T06:51:14.092Z,103162.05
2018-12-26T06:53:43.484Z,103168.56
2018-12-26T06:56:12.885Z,103165.95
2018-12-26T06:58:42.229Z,103165.09
2018-12-26T07:01:11.686Z,103157.70
2018-12-26T07:03:41.080Z,103160.31
2018-12-26T07:06:10.425Z,103159.88
2018-12-26T07:08:39.849Z,103163.78
2018-12-26T07:11:09.174Z,103166.39
2018-12-26T07:13:38.577Z,103161.20
2018-12-26T07:16:07.916Z,103165.12
2018-12-26T07:18:37.316Z,103169.46
2018-12-26T07:21:06.759Z,103161.64
2018-12-26T07:23:36.110Z,103165.98
2018-12-26T07:26:05.464Z,103160.34
2018-12-26T07:28:34.810Z,103159.03
2018-12-26T07:31:04.125Z,103157.30
2018-12-26T07:33:33.514Z,103155.59
2018-12-26T07:36:02.829Z,103156.42
2018-12-26T07:38:32.208Z,103165.14
2018-12-26T07:41:01.553Z,103163.84
2018-12-26T07:43:30.909Z,103161.23
2018-12-26T07:46:00.311Z,103158.63
2018-12-26T07:48:29.683Z,103158.20
2018-12-26T07:50:59.013Z,103151.24
2018-12-26T07:53:28.403Z,103154.28
2018-12-26T07:55:57.772Z,103156.02
2018-12-26T07:58:27.090Z,103152.55
2018-12-26T08:00:56.496Z,103146.06
2018-12-26T08:03:25.965Z,103149.09
2018-12-26T08:05:55.329Z,103152.14
2018-12-26T08:08:24.703Z,103141.28
2018-12-26T08:10:54.004Z,103146.05
2018-12-26T08:13:23.380Z,103145.19
2018-12-26T08:15:52.766Z,103146.52
2018-12-26T08:18:22.160Z,103153.04
2018-12-26T08:20:51.539Z,103159.12
2018-12-26T08:23:20.953Z,103154.77
2018-12-26T08:25:50.321Z,103152.63
2018-12-26T08:28:26.588Z,103151.30
2018-12-26T08:30:50.918Z,103153.47
2018-12-26T08:33:20.397Z,103148.69
2018-12-26T08:35:49.828Z,103153.91
2018-12-26T08:38:19.364Z,103150.86
2018-12-26T08:40:48.718Z,103150.83
2018-12-26T08:43:18.158Z,103149.56
2018-12-26T08:45:47.598Z,103154.75
2018-12-26T08:48:18.272Z,103159.09
2018-12-26T08:50:47.653Z,103161.70
2018-12-26T08:53:17.058Z,103160.39
2018-12-26T08:55:46.509Z,103163.41
2018-12-26T08:58:15.891Z,103161.23
2018-12-26T09:00:48.037Z,103161.23
2018-12-26T09:03:17.408Z,103158.59
2018-12-26T09:05:46.740Z,103159.44
2018-12-26T09:08:16.146Z,103157.70
2018-12-26T09:10:45.584Z,103159.44
2018-12-26T09:13:16.061Z,103157.67
2018-12-26T09:15:45.953Z,103159.41
2018-12-26T09:18:15.288Z,103160.25
2018-12-26T09:20:44.607Z,103164.56
2018-12-26T09:23:13.993Z,103166.73
2018-12-26T09:25:45.787Z,103169.78
2018-12-26T09:28:15.158Z,103169.31
2018-12-26T09:30:46.341Z,103168.02
2018-12-26T09:33:16.113Z,103168.41
2018-12-26T09:35:45.476Z,103169.28
2018-12-26T09:38:14.835Z,103170.99
2018-12-26T09:40:44.177Z,103168.81
2018-12-26T09:43:13.518Z,103166.17
2018-12-26T09:45:43.018Z,103166.17
2018-12-26T09:48:12.586Z,103170.95
2018-12-26T09:50:41.949Z,103169.63
2018-12-26T09:53:11.300Z,103170.92
2018-12-26T09:55:40.649Z,103164.41
2018-12-26T09:58:10.085Z,103171.36
2018-12-26T10:00:39.485Z,103171.36
2018-12-26T10:03:08.846Z,103171.77
2018-12-26T10:05:38.163Z,103170.46
2018-12-26T10:08:07.610Z,103162.20
2018-12-26T10:10:37.001Z,103160.46
2018-12-26T10:13:06.342Z,103157.39
2018-12-26T10:15:35.700Z,103163.47
2018-12-26T10:18:05.041Z,103160.43
2018-12-26T10:20:34.407Z,103163.47
2018-12-26T10:23:03.927Z,103164.74
2018-12-26T10:25:33.286Z,103159.96
2018-12-26T10:28:02.682Z,103159.96
2018-12-26T10:30:32.064Z,103157.32
2018-12-26T10:33:01.432Z,103146.88
2018-12-26T10:35:30.788Z,103154.67
2018-12-26T10:38:00.172Z,103155.55
2018-12-26T10:40:29.527Z,103153.38
2018-12-26T10:42:58.981Z,103154.20
2018-12-26T10:45:28.295Z,103151.16
2018-12-26T10:47:57.633Z,103142.90
2018-12-26T10:50:26.990Z,103139.39
2018-12-26T10:52:56.334Z,103140.25
2018-12-26T10:55:25.680Z,103134.13
2018-12-26T10:57:55.038Z,103136.30
2018-12-26T11:00:24.384Z,103137.14
2018-12-26T11:02:53.759Z,103134.09
2018-12-26T11:05:29.510Z,103126.67
2018-12-26T11:07:54.247Z,103116.62
2018-12-26T11:10:23.681Z,103113.54
2018-12-26T11:12:53.051Z,103111.77
2018-12-26T11:15:22.410Z,103110.02
2018-12-26T11:17:52.587Z,103109.98
2018-12-26T11:20:22.081Z,103106.50
2018-12-26T11:22:51.424Z,103102.98
2018-12-26T11:25:20.785Z,103102.12
2018-12-26T11:27:50.198Z,103097.73
2018-12-26T11:30:19.577Z,103104.69
2018-12-26T11:32:49.017Z,103096.38
2018-12-26T11:35:18.380Z,103096.38
2018-12-26T11:37:47.753Z,103096.38
2018-12-26T11:40:17.083Z,103094.16
2018-12-26T11:42:46.528Z,103091.12
2018-12-26T11:45:15.934Z,103088.03
2018-12-26T11:47:45.362Z,103088.91
2018-12-26T11:50:14.765Z,103086.30
2018-12-26T11:52:44.103Z,103086.30
2018-12-26T11:55:13.443Z,103073.67
2018-12-26T11:57:42.869Z,103074.94
2018-12-26T12:00:12.214Z,103067.09
2018-12-26T12:02:41.550Z,103061.41
2018-12-26T12:05:10.990Z,103064.41
2018-12-26T12:07:40.376Z,103057.44
2018-12-26T12:10:09.788Z,103058.70
2018-12-26T12:12:39.125Z,103053.00
2018-12-26T12:15:08.478Z,103048.65
2018-12-26T12:17:37.844Z,103041.64
2018-12-26T12:20:08.935Z,103040.77
2018-12-26T12:22:38.354Z,103035.55
2018-12-26T12:25:07.688Z,103035.55
2018-12-26T12:27:37.041Z,103036.37
2018-12-26T12:30:06.857Z,103037.20
2018-12-26T12:32:36.204Z,103031.55
2018-12-26T12:35:06.190Z,103027.19
2018-12-26T12:37:35.574Z,103027.19
2018-12-26T12:40:05.429Z,103031.11
2018-12-26T12:42:34.944Z,103023.27
2018-12-26T12:45:04.448Z,103019.35
2018-12-26T12:47:33.777Z,103006.30
2018-12-26T12:50:03.277Z,103006.30
2018-12-26T12:52:32.692Z,103014.04
2018-12-26T12:55:02.057Z,103016.61
2018-12-26T12:57:31.378Z,103016.16
2018-12-26T13:00:00.754Z,103011.33
2018-12-26T13:02:30.055Z,103008.23
2018-12-26T13:04:59.422Z,102998.59
2018-12-26T13:07:28.738Z,102992.77
2018-12-26T13:09:58.076Z,102992.77
2018-12-26T13:12:27.433Z,102997.03
2018-12-26T13:14:56.819Z,102984.84
2018-12-26T13:17:26.258Z,102993.83
2018-12-26T13:19:55.598Z,102992.89
2018-12-26T13:22:25.037Z,102995.02
2018-12-26T13:24:54.388Z,102995.45
2018-12-26T13:27:24.002Z,102988.39
2018-12-26T13:29:53.969Z,102988.39
2018-12-26T13:32:23.534Z,102982.71
2018-12-26T13:34:52.946Z,102982.71
2018-12-26T13:37:22.397Z,102981.80
2018-12-26T13:39:51.745Z,102987.89
2018-12-26T13:42:21.206Z,102983.11
2018-12-26T13:44:50.580Z,102976.57
2018-12-26T13:47:20.010Z,102977.02
2018-12-26T13:49:49.440Z,102981.80
2018-12-26T13:52:18.858Z,102981.80
2018-12-26T13:54:48.315Z,102977.44
2018-12-26T13:57:17.716Z,102975.77
2018-12-26T13:59:47.341Z,102972.65
2018-12-26T14:02:16.711Z,102977.88
2018-12-26T14:04:46.129Z,102976.57
2018-12-26T14:07:15.493Z,102971.78
2018-12-26T14:09:44.918Z,102970.02
2018-12-26T14:12:14.314Z,102965.23
2018-12-26T14:14:43.775Z,102959.56
2018-12-26T14:17:13.079Z,102956.91
2018-12-26T14:19:42.443Z,102951.19
2018-12-26T14:22:11.899Z,102953.27
2018-12-26T14:24:41.312Z,102953.27
2018-12-26T14:27:10.689Z,102952.42
2018-12-26T14:29:40.063Z,102948.51
2018-12-26T14:32:09.490Z,102945.89
2018-12-26T14:34:38.914Z,102945.84
2018-12-26T14:37:08.268Z,102960.21
2018-12-26T14:39:37.663Z,102960.21
2018-12-26T14:42:07.102Z,102950.70
2018-12-26T14:44:36.482Z,102953.37
2018-12-26T14:47:05.859Z,102953.37
2018-12-26T14:49:35.393Z,102952.48
2018-12-26T14:52:04.805Z,102949.49
2018-12-26T14:54:34.172Z,102942.95
2018-12-26T14:57:03.613Z,102931.70
2018-12-26T14:59:32.992Z,102931.70
2018-12-26T15:02:02.357Z,102938.61
2018-12-26T15:04:31.749Z,102925.11
2018-12-26T15:07:01.097Z,102926.58
2018-12-26T15:09:30.508Z,102930.02
2018-12-26T15:11:59.851Z,102930.02
2018-12-26T15:14:29.413Z,102928.81
2018-12-26T15:16:58.755Z,102934.05
2018-12-26T15:19:28.145Z,102931.09
2018-12-26T15:21:57.579Z,102929.41
2018-12-26T15:24:27.006Z,102930.77
2018-12-26T15:26:56.432Z,102937.76
2018-12-26T15:29:25.792Z,102926.97
2018-12-26T15:31:55.198Z,102933.52
2018-12-26T15:34:24.684Z,102923.59
2018-12-26T15:36:54.045Z,102927.99
2018-12-26T15:39:23.450Z,102927.14
2018-12-26T15:41:52.823Z,102921.53
2018-12-26T15:44:22.192Z,102919.02
2018-12-26T15:46:51.692Z,102919.02
2018-12-26T15:49:21.001Z,102915.56
2018-12-26T15:51:50.425Z,102909.95
2018-12-26T15:54:20.021Z,102907.89
2018-12-26T15:56:49.472Z,102907.89
2018-12-26T15:59:18.941Z,102905.77
2018-12-26T16:01:48.383Z,102894.11
2018-12-26T16:04:17.785Z,102894.11
2018-12-26T16:06:48.732Z,102895.47
2018-12-26T16:09:18.133Z,102899.00
2018-12-26T16:11:47.599Z,102899.48
2018-12-26T16:14:18.882Z,102898.63
2018-12-26T16:16:48.264Z,102897.84
2018-12-26T16:19:17.652Z,102899.58
2018-12-26T16:21:47.007Z,102887.84
2018-12-26T16:24:16.404Z,102881.36
2018-12-26T16:26:45.953Z,102880.98
2018-12-26T16:29:15.446Z,102880.98
2018-12-26T16:31:44.803Z,102884.89
2018-12-26T16:34:14.248Z,102881.85
2018-12-26T16:36:43.681Z,102875.71
2018-12-26T16:39:13.215Z,102877.00
2018-12-26T16:41:42.570Z,102872.18
2018-12-26T16:44:13.552Z,102878.26
2018-12-26T16:46:42.939Z,102878.26
2018-12-26T16:49:12.481Z,102876.05
2018-12-26T16:51:41.989Z,102870.00
2018-12-26T16:54:11.418Z,102873.86
2018-12-26T16:56:40.849Z,102874.73
2018-12-26T16:59:10.233Z,102869.06
2018-12-26T17:01:39.655Z,102869.06
2018-12-26T17:04:09.087Z,102869.46
2018-12-26T17:06:38.440Z,102867.67
2018-12-26T17:09:10.118Z,102863.32
2018-12-26T17:11:39.628Z,102866.80
2018-12-26T17:14:09.050Z,102866.80
2018-12-26T17:16:38.558Z,102866.80
2018-12-26T17:19:07.906Z,102866.80
2018-12-26T17:21:37.310Z,102872.90
2018-12-26T17:24:06.659Z,102868.55
2018-12-26T17:26:36.080Z,102871.20
2018-12-26T17:29:05.444Z,102875.98
2018-12-26T17:31:34.861Z,102874.67
2018-12-26T17:34:04.277Z,102873.81
2018-12-26T17:36:33.725Z,102865.53
2018-12-26T17:39:04.256Z,102870.77
2018-12-26T17:41:33.767Z,102869.91
2018-12-26T17:44:03.232Z,102869.06
2018-12-26T17:46:32.710Z,102866.45
2018-12-26T17:49:02.080Z,102869.51
2018-12-26T17:51:31.431Z,102873.81
2018-12-26T17:54:24.654Z,102875.61
2018-12-26T17:57:06.682Z,102872.59
2018-12-26T17:59:50.494Z,102878.26
2018-12-26T18:02:27.564Z,102882.61
2018-12-26T18:04:57.055Z,102883.92
2018-12-26T18:07:26.532Z,102883.49
2018-12-26T18:09:56.014Z,102881.32
2018-12-26T18:12:25.450Z,102881.75
2018-12-26T18:14:55.294Z,102883.09
2018-12-26T18:17:24.757Z,102878.70
2018-12-26T18:19:54.087Z,102868.73
2018-12-26T18:22:23.440Z,102870.05
2018-12-26T18:24:53.014Z,102880.49
2018-12-26T18:27:22.445Z,102874.89
2018-12-26T18:29:51.919Z,102881.85
2018-12-26T18:32:21.293Z,102879.28
2018-12-26T18:34:50.708Z,102877.59
2018-12-26T18:37:23.112Z,102877.59
2018-12-26T18:39:52.484Z,102876.34
2018-12-26T18:42:21.890Z,102882.04
2018-12-26T18:44:51.239Z,102882.95
2018-12-26T18:47:20.760Z,102882.09
2018-12-26T18:49:51.197Z,102883.02
2018-12-26T18:52:20.599Z,102885.28
2018-12-26T18:54:49.955Z,102886.19
2018-12-26T18:57:19.302Z,102877.59
2018-12-26T18:59:48.759Z,102885.47
2018-12-26T19:02:18.196Z,102892.52
2018-12-26T19:04:47.645Z,102889.09
2018-12-26T19:07:17.019Z,102890.48
2018-12-26T19:09:46.430Z,102895.27
2018-12-26T19:12:15.880Z,102896.66
2018-12-26T19:14:45.319Z,102885.40
2018-12-26T19:17:14.728Z,102882.40
2018-12-26T19:19:44.187Z,102879.88
2018-12-26T19:22:13.671Z,102875.58
2018-12-26T19:24:43.097Z,102876.95
2018-12-26T19:27:12.444Z,102877.87
2018-12-26T19:29:41.824Z,102878.82
2018-12-26T19:32:11.198Z,102874.95
2018-12-26T19:34:40.585Z,102876.30
2018-12-26T19:37:09.960Z,102872.00
2018-12-26T19:39:39.418Z,102879.42
2018-12-26T19:42:09.018Z,102868.16
2018-12-26T19:44:38.667Z,102863.42
2018-12-26T19:47:08.296Z,102864.34
2018-12-26T19:49:37.716Z,102866.94
2018-12-26T19:52:07.118Z,102865.25
2018-12-26T19:54:36.678Z,102864.42
2018-12-26T19:57:06.233Z,102863.59
2018-12-26T19:59:35.712Z,102861.45
2018-12-26T20:02:05.503Z,102864.97
2018-12-26T20:04:34.962Z,102862.36
2018-12-26T20:07:04.396Z,102861.53
2018-12-26T20:09:33.895Z,102858.53
2018-12-26T20:12:09.201Z,102855.53
2018-12-26T20:14:38.488Z,102862.44
2018-12-26T20:17:07.975Z,102860.74
2018-12-26T20:19:37.406Z,102862.48
2018-12-26T20:22:06.913Z,102865.13
2018-12-26T20:24:36.313Z,102863.82
2018-12-26T20:27:05.748Z,102861.22
2018-12-26T20:29:35.082Z,102859.95
2018-12-26T20:32:04.559Z,102861.25
2018-12-26T20:34:34.094Z,102861.72
2018-12-26T20:37:03.463Z,102859.55
2018-12-26T20:39:32.945Z,102857.41
2018-12-26T20:42:02.326Z,102859.55
2018-12-26T20:44:31.695Z,102856.11
2018-12-26T20:47:01.111Z,102852.64
2018-12-26T20:49:31.540Z,102852.64
2018-12-26T20:52:00.861Z,102850.03
2018-12-26T20:54:30.277Z,102847.03
2018-12-26T20:56:59.688Z,102843.99
2018-12-26T20:59:29.019Z,102836.66
2018-12-26T21:02:05.656Z,102846.20
2018-12-26T21:04:29.497Z,102844.94
2018-12-26T21:06:58.968Z,102848.41
2018-12-26T21:09:28.394Z,102843.20
2018-12-26T21:11:57.814Z,102845.80
2018-12-26T21:14:27.180Z,102840.20
2018-12-26T21:16:56.604Z,102851.52
2018-12-26T21:19:25.966Z,102849.34
2018-12-26T21:21:55.410Z,102855.86
2018-12-26T21:24:24.788Z,102847.64
2018-12-26T21:26:54.160Z,102850.25
2018-12-26T21:29:23.604Z,102844.64
2018-12-26T21:31:53.019Z,102837.30
2018-12-26T21:34:22.390Z,102838.59
2018-12-26T21:36:51.807Z,102840.80
2018-12-26T21:39:21.126Z,102845.61
2018-12-26T21:41:50.530Z,102840.87
2018-12-26T21:44:19.882Z,102836.13
2018-12-26T21:46:49.402Z,102836.16
2018-12-26T21:49:18.967Z,102830.99
2018-12-26T21:51:48.500Z,102828.42
2018-12-26T21:54:17.959Z,102829.32
2018-12-26T21:56:49.035Z,102826.75
2018-12-26T21:59:18.445Z,102823.75
2018-12-26T22:01:47.839Z,102830.28
2018-12-26T22:04:17.154Z,102824.67
2018-12-26T22:06:46.507Z,102829.51
2018-12-26T22:09:15.965Z,102822.60
2018-12-26T22:11:45.362Z,102822.20
2018-12-26T22:14:14.778Z,102818.79
2018-12-26T22:16:44.180Z,102823.13
2018-12-26T22:19:13.707Z,102814.05
2018-12-26T22:21:43.062Z,102822.31
2018-12-26T22:24:12.424Z,102822.34
2018-12-26T22:26:43.402Z,102821.94
2018-12-26T22:29:12.946Z,102817.63
2018-12-26T22:31:42.577Z,102824.59
2018-12-26T22:34:11.948Z,102825.92
2018-12-26T22:36:41.305Z,102818.58
2018-12-26T22:39:10.602Z,102820.31
2018-12-26T22:41:39.986Z,102823.41
2018-12-26T22:44:09.398Z,102819.94
2018-12-26T22:46:38.900Z,102828.62
2018-12-26T22:49:08.417Z,102819.59
2018-12-26T22:51:41.822Z,102823.05
2018-12-26T22:54:09.167Z,102826.53
2018-12-26T22:56:38.676Z,102825.70
2018-12-26T22:59:08.108Z,102825.72
2018-12-26T23:01:37.667Z,102825.31
2018-12-26T23:04:07.217Z,102827.08
2018-12-26T23:06:36.633Z,102830.13
2018-12-26T23:09:08.046Z,102821.92
2018-12-26T23:11:37.549Z,102818.89
2018-12-26T23:14:07.047Z,102818.89
2018-12-26T23:16:36.496Z,102825.84
2018-12-26T23:19:05.895Z,102818.47
2018-12-26T23:21:35.239Z,102821.53
2018-12-26T23:24:04.668Z,102822.83
2018-12-26T23:26:34.051Z,102819.39
2018-12-26T23:29:06.773Z,102820.69
2018-12-26T23:31:36.158Z,102814.22
2018-12-26T23:34:05.538Z,102815.97
2018-12-26T23:36:34.997Z,102814.66
2018-12-26T23:39:07.255Z,102814.27
2018-12-26T23:41:36.638Z,102809.95
2018-12-26T23:44:07.826Z,102815.58
2018-12-26T23:46:37.166Z,102807.78
2018-12-26T23:49:06.500Z,102803.48
2018-12-26T23:51:35.906Z,102799.58
2018-12-26T23:54:05.239Z,102793.95
2018-12-26T23:56:34.665Z,102797.00
2018-12-26T23:59:04.014Z,102787.48
